Time,TemperatureF,DewpointF,PressureIn,WindDirection,WindDirectionDegrees,WindSpeedMPH,WindSpeedGustMPH,Humidity,HourlyPrecipIn,Conditions,Clouds,dailyrainin,SoftwareType,DateUTC
2013-04-02 00:00:00,41.8,37.3,30.06,NE,38,3.0,5.0,84,0.00,,---,0.00,VWS V14.01,2013-04-02 07:00:00,
2013-04-02 00:03:00,41.5,37.0,30.06,NE,38,4.0,5.0,84,0.00,,---,0.00,VWS V14.01,2013-04-02 07:03:00,
2013-04-02 00:08:00,41.6,37.4,30.06,NE,38,4.0,5.0,85,0.00,,---,0.00,VWS V14.01,2013-04-02 07:08:00,
2013-04-02 00:13:00,42.0,37.8,30.06,NE,38,2.0,5.0,85,0.00,,---,0.00,VWS V14.01,2013-04-02 07:13:00,
2013-04-02 00:15:00,42.1,38.2,30.06,NE,38,2.0,5.0,86,0.00,,---,0.00,VWS V14.01,2013-04-02 07:15:00,
2013-04-02 00:18:00,42.2,38.0,30.06,NE,38,4.0,4.0,85,0.00,,---,0.00,VWS V14.01,2013-04-02 07:18:00,
2013-04-02 00:23:00,42.7,38.2,30.06,NE,38,3.0,5.0,84,0.00,,---,0.00,VWS V14.01,2013-04-02 07:23:00,
2013-04-02 00:28:00,42.0,37.2,30.07,NE,39,3.0,5.0,83,0.00,,---,0.00,VWS V14.01,2013-04-02 07:28:00,
2013-04-02 00:30:00,41.6,37.1,30.07,NE,37,6.0,6.0,84,0.00,,---,0.00,VWS V14.01,2013-04-02 07:30:00,
2013-04-02 00:33:00,41.2,37.0,30.07,NE,40,4.0,6.0,85,0.00,,---,0.00,VWS V14.01,2013-04-02 07:33:00,
2013-04-02 00:38:00,40.4,36.3,30.07,NE,42,3.0,6.0,85,0.00,,---,0.00,VWS V14.01,2013-04-02 07:38:00,
2013-04-02 00:43:00,39.9,36.1,30.08,NE,41,0.0,6.0,86,0.00,,---,0.00,VWS V14.01,2013-04-02 07:43:00,
2013-04-02 00:45:00,39.6,35.5,30.07,NNE,31,0.0,6.0,85,0.00,,---,0.00,VWS V14.01,2013-04-02 07:45:00,
2013-04-02 00:48:00,39.1,35.6,30.07,NNE,27,0.0,0.0,87,0.00,,---,0.00,VWS V14.01,2013-04-02 07:48:00,
2013-04-02 00:53:00,38.8,35.0,30.07,NNE,27,0.0,0.0,86,0.00,,---,0.00,VWS V14.01,2013-04-02 07:53:00,
2013-04-02 00:58:00,38.7,35.5,30.08,NNW,330,2.0,3.0,88,0.00,,---,0.00,VWS V14.01,2013-04-02 07:58:00,
2013-04-02 01:00:00,38.8,35.8,30.08,NNW,330,1.0,3.0,89,0.00,,---,0.00,VWS V14.01,2013-04-02 08:00:00,
2013-04-02 01:03:00,38.9,35.9,30.08,NNW,330,0.0,2.0,89,0.00,,---,0.00,VWS V14.01,2013-04-02 08:03:00,
2013-04-02 01:08:00,38.8,35.8,30.08,NNW,330,0.0,2.0,89,0.00,,---,0.00,VWS V14.01,2013-04-02 08:08:00,
2013-04-02 01:13:00,38.6,35.4,30.08,NNW,331,0.0,2.0,88,0.00,,---,0.00,VWS V14.01,2013-04-02 08:13:00,
2013-04-02 01:15:00,38.6,35.7,30.09,NNW,331,0.0,2.0,89,0.00,,---,0.00,VWS V14.01,2013-04-02 08:15:00,
2013-04-02 01:18:00,38.7,36.0,30.09,NNW,330,0.0,0.0,90,0.00,,---,0.00,VWS V14.01,2013-04-02 08:18:00,
2013-04-02 01:23:00,38.7,36.0,30.09,NNW,331,0.0,0.0,90,0.00,,---,0.00,VWS V14.01,2013-04-02 08:23:00,
2013-04-02 01:28:00,38.6,35.9,30.09,NNW,330,0.0,0.0,90,0.00,,---,0.00,VWS V14.01,2013-04-02 08:28:00,
2013-04-02 01:30:00,38.6,35.9,30.09,NNW,330,0.0,0.0,90,0.00,,---,0.00,VWS V14.01,2013-04-02 08:30:00,
2013-04-02 01:33:00,38.6,35.9,30.09,NNW,331,0.0,0.0,90,0.00,,---,0.00,VWS V14.01,2013-04-02 08:33:00,
2013-04-02 01:38:00,38.4,35.7,30.09,North,355,0.0,0.0,90,0.00,,---,0.00,VWS V14.01,2013-04-02 08:38:00,
2013-04-02 01:43:00,37.6,34.7,30.09,North,360,0.0,0.0,89,0.00,,---,0.00,VWS V14.01,2013-04-02 08:43:00,
2013-04-02 01:45:00,37.4,34.5,30.10,North,360,0.0,0.0,89,0.00,,---,0.00,VWS V14.01,2013-04-02 08:45:00,
2013-04-02 01:48:00,37.3,34.4,30.10,North,5,0.0,0.0,89,0.00,,---,0.00,VWS V14.01,2013-04-02 08:48:00,
2013-04-02 01:53:00,36.9,34.2,30.10,North,360,0.0,0.0,90,0.00,,---,0.00,VWS V14.01,2013-04-02 08:53:00,
2013-04-02 01:58:00,36.3,33.7,30.10,North,5,0.0,0.0,90,0.00,,---,0.00,VWS V14.01,2013-04-02 08:58:00,
2013-04-02 02:00:00,36.4,33.8,30.09,North,5,0.0,0.0,90,0.00,,---,0.00,VWS V14.01,2013-04-02 09:00:00,
2013-04-02 02:03:00,36.2,33.6,30.09,North,5,0.0,0.0,90,0.00,,---,0.00,VWS V14.01,2013-04-02 09:03:00,
2013-04-02 02:08:00,35.8,33.2,30.10,North,360,0.0,0.0,90,0.00,,---,0.00,VWS V14.01,2013-04-02 09:08:00,
2013-04-02 02:13:00,35.4,32.8,30.09,North,5,0.0,0.0,90,0.00,,---,0.00,VWS V14.01,2013-04-02 09:13:00,
2013-04-02 02:15:00,35.6,33.2,30.10,North,5,0.0,0.0,91,0.00,,---,0.00,VWS V14.01,2013-04-02 09:15:00,
2013-04-02 02:18:00,35.9,33.8,30.10,North,5,3.0,3.0,92,0.00,,---,0.00,VWS V14.01,2013-04-02 09:18:00,
2013-04-02 02:23:00,35.9,33.5,30.10,NNE,22,3.0,4.0,91,0.00,,---,0.00,VWS V14.01,2013-04-02 09:23:00,
2013-04-02 02:28:00,35.6,33.2,30.10,NNE,30,4.0,4.0,91,0.00,,---,0.00,VWS V14.01,2013-04-02 09:28:00,
2013-04-02 02:30:00,35.5,33.1,30.10,NNE,30,4.0,4.0,91,0.00,,---,0.00,VWS V14.01,2013-04-02 09:30:00,
2013-04-02 02:33:00,35.5,33.1,30.10,NNE,30,4.0,5.0,91,0.00,,---,0.00,VWS V14.01,2013-04-02 09:33:00,
2013-04-02 02:38:00,35.3,32.9,30.10,NNE,30,3.0,5.0,91,0.00,,---,0.00,VWS V14.01,2013-04-02 09:38:00,
2013-04-02 02:43:00,34.7,32.3,30.10,NNE,30,0.0,5.0,91,0.00,,---,0.00,VWS V14.01,2013-04-02 09:43:00,
2013-04-02 02:45:00,34.6,32.2,30.10,NNE,30,0.0,5.0,91,0.00,,---,0.00,VWS V14.01,2013-04-02 09:45:00,
2013-04-02 02:48:00,34.6,32.2,30.10,NNE,30,0.0,0.0,91,0.00,,---,0.00,VWS V14.01,2013-04-02 09:48:00,
2013-04-02 02:53:00,34.7,32.6,30.10,NNE,30,0.0,0.0,92,0.00,,---,0.00,VWS V14.01,2013-04-02 09:53:00,
2013-04-02 02:58:00,34.6,32.5,30.10,NNE,30,0.0,0.0,92,0.00,,---,0.00,VWS V14.01,2013-04-02 09:58:00,
2013-04-02 03:00:00,34.5,32.2,30.10,NNE,30,0.0,0.0,91,0.00,,---,0.00,VWS V14.01,2013-04-02 10:00:00,
2013-04-02 03:03:00,34.5,32.4,30.10,NNE,30,0.0,0.0,92,0.00,,---,0.00,VWS V14.01,2013-04-02 10:03:00,
2013-04-02 03:08:00,34.4,32.0,30.10,NNE,30,0.0,0.0,91,0.00,,---,0.00,VWS V14.01,2013-04-02 10:08:00,
2013-04-02 03:13:00,33.4,30.8,30.10,NNE,30,0.0,0.0,90,0.00,,---,0.00,VWS V14.01,2013-04-02 10:13:00,
2013-04-02 03:15:00,33.0,30.4,30.10,NNE,30,0.0,0.0,90,0.00,,---,0.00,VWS V14.01,2013-04-02 10:15:00,
2013-04-02 03:18:00,32.5,29.9,30.10,NNE,30,0.0,0.0,90,0.00,,---,0.00,VWS V14.01,2013-04-02 10:18:00,
2013-04-02 03:23:00,32.3,30.0,30.10,NNE,30,0.0,0.0,91,0.00,,---,0.00,VWS V14.01,2013-04-02 10:23:00,
2013-04-02 03:28:00,32.5,30.4,30.11,NNE,30,0.0,0.0,92,0.00,,---,0.00,VWS V14.01,2013-04-02 10:28:00,
2013-04-02 03:30:00,32.5,30.4,30.11,NNE,30,0.0,0.0,92,0.00,,---,0.00,VWS V14.01,2013-04-02 10:30:00,
2013-04-02 03:33:00,32.5,30.4,30.11,NNE,30,0.0,0.0,92,0.00,,---,0.00,VWS V14.01,2013-04-02 10:33:00,
2013-04-02 03:38:00,32.8,31.0,30.11,NNE,30,0.0,0.0,93,0.00,,---,0.00,VWS V14.01,2013-04-02 10:38:00,
2013-04-02 03:43:00,33.4,31.6,30.11,NNE,30,0.0,0.0,93,0.00,,---,0.00,VWS V14.01,2013-04-02 10:43:00,
2013-04-02 03:45:00,33.4,31.6,30.11,NNE,30,0.0,0.0,93,0.00,,---,0.00,VWS V14.01,2013-04-02 10:45:00,
2013-04-02 03:48:00,33.2,31.4,30.11,NNE,30,2.0,2.0,93,0.00,,---,0.00,VWS V14.01,2013-04-02 10:48:00,
2013-04-02 03:53:00,33.1,31.3,30.11,NNE,30,4.0,4.0,93,0.00,,---,0.00,VWS V14.01,2013-04-02 10:53:00,
2013-04-02 03:58:00,34.4,32.6,30.11,NNE,27,1.0,5.0,93,0.00,,---,0.00,VWS V14.01,2013-04-02 10:58:00,
2013-04-02 04:00:00,34.1,32.3,30.11,NNE,27,0.0,5.0,93,0.00,,---,0.00,VWS V14.01,2013-04-02 11:00:00,
2013-04-02 04:03:00,34.4,32.6,30.11,NNW,344,5.0,7.0,93,0.00,,---,0.00,VWS V14.01,2013-04-02 11:03:00,
2013-04-02 04:08:00,35.3,33.5,30.11,North,355,4.0,7.0,93,0.00,,---,0.00,VWS V14.01,2013-04-02 11:08:00,
2013-04-02 04:13:00,35.5,33.7,30.11,North,5,0.0,7.0,93,0.00,,---,0.00,VWS V14.01,2013-04-02 11:13:00,
2013-04-02 04:15:00,35.4,33.3,30.11,North,360,0.0,7.0,92,0.00,,---,0.00,VWS V14.01,2013-04-02 11:15:00,
2013-04-02 04:18:00,35.0,32.6,30.11,North,360,0.0,0.0,91,0.00,,---,0.00,VWS V14.01,2013-04-02 11:18:00,
2013-04-02 04:23:00,34.4,32.0,30.11,North,5,0.0,0.0,91,0.00,,---,0.00,VWS V14.01,2013-04-02 11:23:00,
2013-04-02 04:28:00,34.2,31.9,30.11,North,5,0.0,0.0,91,0.00,,---,0.00,VWS V14.01,2013-04-02 11:28:00,
2013-04-02 04:30:00,34.1,31.8,30.11,North,360,0.0,0.0,91,0.00,,---,0.00,VWS V14.01,2013-04-02 11:30:00,
2013-04-02 04:33:00,33.7,31.4,30.11,North,5,0.0,0.0,91,0.00,,---,0.00,VWS V14.01,2013-04-02 11:33:00,
2013-04-02 04:38:00,33.0,30.7,30.12,North,360,0.0,0.0,91,0.00,,---,0.00,VWS V14.01,2013-04-02 11:38:00,
2013-04-02 04:43:00,32.6,30.5,30.12,North,360,0.0,0.0,92,0.00,,---,0.00,VWS V14.01,2013-04-02 11:43:00,
2013-04-02 04:45:00,32.4,30.3,30.12,North,5,0.0,0.0,92,0.00,,---,0.00,VWS V14.01,2013-04-02 11:45:00,
2013-04-02 04:48:00,32.3,30.2,30.12,North,360,0.0,0.0,92,0.00,,---,0.00,VWS V14.01,2013-04-02 11:48:00,
2013-04-02 04:53:00,32.4,30.3,30.12,North,5,0.0,0.0,92,0.00,,---,0.00,VWS V14.01,2013-04-02 11:53:00,
2013-04-02 04:58:00,32.5,30.7,30.12,North,5,0.0,0.0,93,0.00,,---,0.00,VWS V14.01,2013-04-02 11:58:00,
2013-04-02 05:00:00,32.6,30.8,30.12,North,5,0.0,0.0,93,0.00,,---,0.00,VWS V14.01,2013-04-02 12:00:00,
2013-04-02 05:03:00,32.7,30.9,30.12,North,360,0.0,0.0,93,0.00,,---,0.00,VWS V14.01,2013-04-02 12:03:00,
2013-04-02 05:08:00,32.6,30.8,30.12,North,5,0.0,0.0,93,0.00,,---,0.00,VWS V14.01,2013-04-02 12:08:00,
2013-04-02 05:13:00,32.5,30.7,30.12,North,360,0.0,0.0,93,0.00,,---,0.00,VWS V14.01,2013-04-02 12:13:00,
2013-04-02 05:15:00,32.4,30.6,30.12,North,360,0.0,0.0,93,0.00,,---,0.00,VWS V14.01,2013-04-02 12:15:00,
2013-04-02 05:18:00,32.3,30.5,30.12,North,360,0.0,0.0,93,0.00,,---,0.00,VWS V14.01,2013-04-02 12:18:00,
2013-04-02 05:23:00,32.1,30.3,30.12,North,5,0.0,0.0,93,0.00,,---,0.00,VWS V14.01,2013-04-02 12:23:00,
2013-04-02 05:28:00,31.9,30.1,30.12,North,360,0.0,0.0,93,0.00,,---,0.00,VWS V14.01,2013-04-02 12:28:00,
2013-04-02 05:30:00,31.9,30.1,30.12,North,5,0.0,0.0,93,0.00,,---,0.00,VWS V14.01,2013-04-02 12:30:00,
2013-04-02 05:33:00,31.7,29.9,30.12,North,360,0.0,0.0,93,0.00,,---,0.00,VWS V14.01,2013-04-02 12:33:00,
2013-04-02 05:38:00,31.3,29.5,30.12,North,360,0.0,0.0,93,0.00,,---,0.00,VWS V14.01,2013-04-02 12:38:00,
2013-04-02 05:43:00,31.2,29.4,30.13,North,5,0.0,0.0,93,0.00,,---,0.00,VWS V14.01,2013-04-02 12:43:00,
2013-04-02 05:45:00,31.2,29.4,30.13,North,5,0.0,0.0,93,0.00,,---,0.00,VWS V14.01,2013-04-02 12:45:00,
2013-04-02 05:48:00,31.1,29.3,30.13,North,5,0.0,0.0,93,0.00,,---,0.00,VWS V14.01,2013-04-02 12:48:00,
2013-04-02 05:52:00,31.7,29.9,30.13,North,5,0.0,0.0,93,0.00,,---,0.00,VWS V14.01,2013-04-02 12:52:00,
2013-04-02 05:57:00,32.5,31.0,30.13,North,360,0.0,0.0,94,0.00,,---,0.00,VWS V14.01,2013-04-02 12:57:00,
2013-04-02 06:00:00,32.6,31.1,30.13,North,5,0.0,0.0,94,0.00,,---,0.00,VWS V14.01,2013-04-02 13:00:00,
2013-04-02 06:02:00,32.4,30.9,30.13,North,5,0.0,0.0,94,0.00,,---,0.00,VWS V14.01,2013-04-02 13:02:00,
2013-04-02 06:07:00,31.8,30.3,30.13,North,5,0.0,0.0,94,0.00,,---,0.00,VWS V14.01,2013-04-02 13:07:00,
2013-04-02 06:12:00,30.7,28.9,30.13,North,5,0.0,0.0,93,0.00,,---,0.00,VWS V14.01,2013-04-02 13:12:00,
2013-04-02 06:15:00,30.3,28.5,30.13,North,360,0.0,0.0,93,0.00,,---,0.00,VWS V14.01,2013-04-02 13:15:00,
2013-04-02 06:17:00,29.9,28.1,30.13,North,5,0.0,0.0,93,0.00,,---,0.00,VWS V14.01,2013-04-02 13:17:00,
2013-04-02 06:22:00,29.4,27.6,30.14,North,360,0.0,0.0,93,0.00,,---,0.00,VWS V14.01,2013-04-02 13:22:00,
2013-04-02 06:27:00,29.4,27.6,30.13,North,5,0.0,0.0,93,0.00,,---,0.00,VWS V14.01,2013-04-02 13:27:00,
2013-04-02 06:30:00,29.4,27.6,30.13,North,5,0.0,0.0,93,0.00,,---,0.00,VWS V14.01,2013-04-02 13:30:00,
2013-04-02 06:32:00,29.0,27.2,30.14,North,360,0.0,0.0,93,0.00,,---,0.00,VWS V14.01,2013-04-02 13:32:00,
2013-04-02 06:37:00,28.4,26.6,30.14,North,5,0.0,0.0,93,0.00,,---,0.00,VWS V14.01,2013-04-02 13:37:00,
2013-04-02 06:42:00,28.5,26.7,30.14,North,5,0.0,0.0,93,0.00,,---,0.00,VWS V14.01,2013-04-02 13:42:00,
2013-04-02 06:45:00,28.9,27.1,30.14,North,5,0.0,0.0,93,0.00,,---,0.00,VWS V14.01,2013-04-02 13:45:00,
2013-04-02 06:47:00,29.2,27.7,30.14,North,360,0.0,0.0,94,0.00,,---,0.00,VWS V14.01,2013-04-02 13:47:00,
2013-04-02 06:52:00,29.9,28.4,30.14,North,360,0.0,0.0,94,0.00,,---,0.00,VWS V14.01,2013-04-02 13:52:00,
2013-04-02 06:57:00,30.2,28.7,30.14,North,360,0.0,0.0,94,0.00,,---,0.00,VWS V14.01,2013-04-02 13:57:00,
2013-04-02 07:00:00,30.1,28.6,30.14,North,360,0.0,0.0,94,0.00,,---,0.00,VWS V14.01,2013-04-02 14:00:00,
2013-04-02 07:02:00,30.0,28.5,30.14,North,5,0.0,0.0,94,0.00,,---,0.00,VWS V14.01,2013-04-02 14:02:00,
2013-04-02 07:07:00,29.9,28.4,30.14,North,5,0.0,0.0,94,0.00,,---,0.00,VWS V14.01,2013-04-02 14:07:00,
2013-04-02 07:12:00,30.0,28.5,30.14,North,5,0.0,0.0,94,0.00,,---,0.00,VWS V14.01,2013-04-02 14:12:00,
2013-04-02 07:15:00,30.1,28.6,30.14,North,360,0.0,0.0,94,0.00,,---,0.00,VWS V14.01,2013-04-02 14:15:00,
2013-04-02 07:17:00,30.2,28.7,30.14,North,360,0.0,0.0,94,0.00,,---,0.00,VWS V14.01,2013-04-02 14:17:00,
2013-04-02 07:22:00,30.6,29.1,30.15,North,5,0.0,0.0,94,0.00,,---,0.00,VWS V14.01,2013-04-02 14:22:00,
2013-04-02 07:27:00,31.3,29.8,30.15,North,360,0.0,0.0,94,0.00,,---,0.00,VWS V14.01,2013-04-02 14:27:00,
2013-04-02 07:30:00,31.7,30.2,30.15,North,5,0.0,0.0,94,0.00,,---,0.00,VWS V14.01,2013-04-02 14:30:00,
2013-04-02 07:32:00,32.4,31.1,30.15,North,360,0.0,0.0,95,0.00,,---,0.00,VWS V14.01,2013-04-02 14:32:00,
2013-04-02 07:37:00,32.7,31.4,30.15,North,5,0.0,0.0,95,0.00,,---,0.00,VWS V14.01,2013-04-02 14:37:00,
2013-04-02 07:42:00,32.9,31.6,30.15,North,5,0.0,0.0,95,0.00,,---,0.00,VWS V14.01,2013-04-02 14:42:00,
2013-04-02 07:45:00,32.8,31.5,30.15,North,5,0.0,0.0,95,0.00,,---,0.00,VWS V14.01,2013-04-02 14:45:00,
2013-04-02 07:47:00,33.0,31.7,30.15,North,5,0.0,0.0,95,0.00,,---,0.00,VWS V14.01,2013-04-02 14:47:00,
2013-04-02 07:52:00,32.8,31.3,30.15,North,360,0.0,0.0,94,0.00,,---,0.00,VWS V14.01,2013-04-02 14:52:00,
2013-04-02 07:57:00,33.3,32.0,30.14,North,360,0.0,0.0,95,0.00,,---,0.00,VWS V14.01,2013-04-02 14:57:00,
2013-04-02 08:00:00,33.6,32.3,30.15,North,5,0.0,0.0,95,0.00,,---,0.00,VWS V14.01,2013-04-02 15:00:00,
2013-04-02 08:02:00,33.9,32.6,30.15,North,5,0.0,0.0,95,0.00,,---,0.00,VWS V14.01,2013-04-02 15:02:00,
2013-04-02 08:07:00,35.0,33.7,30.15,North,5,0.0,0.0,95,0.00,,---,0.00,VWS V14.01,2013-04-02 15:07:00,
2013-04-02 08:12:00,35.6,34.3,30.15,North,5,0.0,0.0,95,0.00,,---,0.00,VWS V14.01,2013-04-02 15:12:00,
2013-04-02 08:15:00,36.0,34.7,30.14,North,360,0.0,0.0,95,0.00,,---,0.00,VWS V14.01,2013-04-02 15:15:00,
2013-04-02 08:17:00,36.4,35.1,30.14,North,5,0.0,0.0,95,0.00,,---,0.00,VWS V14.01,2013-04-02 15:17:00,
2013-04-02 08:22:00,37.3,36.0,30.15,North,360,0.0,0.0,95,0.00,,---,0.00,VWS V14.01,2013-04-02 15:22:00,
2013-04-02 08:27:00,37.4,35.8,30.14,North,360,0.0,0.0,94,0.00,,---,0.00,VWS V14.01,2013-04-02 15:27:00,
2013-04-02 08:30:00,37.5,35.7,30.14,North,5,0.0,0.0,93,0.00,,---,0.00,VWS V14.01,2013-04-02 15:30:00,
2013-04-02 08:35:00,38.0,36.2,30.14,North,360,0.0,0.0,93,0.00,,---,0.00,VWS V14.01,2013-04-02 15:35:00,
2013-04-02 08:40:00,38.6,36.5,30.14,North,360,0.0,0.0,92,0.00,,---,0.00,VWS V14.01,2013-04-02 15:40:00,
2013-04-02 08:45:00,39.3,37.2,30.14,North,5,0.0,0.0,92,0.00,,---,0.00,VWS V14.01,2013-04-02 15:45:00,
2013-04-02 08:50:00,40.1,37.7,30.14,North,360,0.0,0.0,91,0.00,,---,0.00,VWS V14.01,2013-04-02 15:50:00,
2013-04-02 08:55:00,40.4,37.7,30.14,North,5,0.0,0.0,90,0.00,,---,0.00,VWS V14.01,2013-04-02 15:55:00,
2013-04-02 09:00:00,40.6,37.9,30.14,North,360,0.0,0.0,90,0.00,,---,0.00,VWS V14.01,2013-04-02 16:00:00,
2013-04-02 09:05:00,41.1,38.4,30.14,North,5,0.0,0.0,90,0.00,,---,0.00,VWS V14.01,2013-04-02 16:05:00,
2013-04-02 09:10:00,41.5,38.8,30.14,North,5,0.0,0.0,90,0.00,,---,0.00,VWS V14.01,2013-04-02 16:10:00,
2013-04-02 09:15:00,42.0,39.0,30.14,North,360,0.0,0.0,89,0.00,,---,0.00,VWS V14.01,2013-04-02 16:15:00,
2013-04-02 09:20:00,42.5,39.2,30.14,North,5,0.0,0.0,88,0.00,,---,0.00,VWS V14.01,2013-04-02 16:20:00,
2013-04-02 09:25:00,43.5,39.9,30.14,North,5,0.0,0.0,87,0.00,,---,0.00,VWS V14.01,2013-04-02 16:25:00,
2013-04-02 09:30:00,44.5,40.3,30.13,North,360,0.0,0.0,85,0.00,,---,0.00,VWS V14.01,2013-04-02 16:30:00,
2013-04-02 09:33:00,45.0,40.5,30.13,North,360,0.0,0.0,84,0.00,,---,0.00,VWS V14.01,2013-04-02 16:33:00,
2013-04-02 09:38:00,45.6,41.0,30.13,North,5,0.0,0.0,84,0.00,,---,0.00,VWS V14.01,2013-04-02 16:38:00,
2013-04-02 09:43:00,46.5,41.3,30.13,North,360,0.0,0.0,82,0.00,,---,0.00,VWS V14.01,2013-04-02 16:43:00,
2013-04-02 09:45:00,46.7,41.5,30.13,North,5,0.0,0.0,82,0.00,,---,0.00,VWS V14.01,2013-04-02 16:45:00,
2013-04-02 09:48:00,47.4,41.9,30.13,North,5,0.0,0.0,81,0.00,,---,0.00,VWS V14.01,2013-04-02 16:48:00,
2013-04-02 09:53:00,48.3,41.8,30.13,North,360,0.0,0.0,78,0.00,,---,0.00,VWS V14.01,2013-04-02 16:53:00,
2013-04-02 09:58:00,49.3,42.4,30.13,North,360,0.0,0.0,77,0.00,,---,0.00,VWS V14.01,2013-04-02 16:58:00,
2013-04-02 10:00:00,49.6,42.7,30.13,North,5,0.0,0.0,77,0.00,,---,0.00,VWS V14.01,2013-04-02 17:00:00,
2013-04-02 10:03:00,50.0,42.4,30.13,North,5,0.0,0.0,75,0.00,,---,0.00,VWS V14.01,2013-04-02 17:03:00,
2013-04-02 10:08:00,50.5,42.2,30.13,North,360,0.0,0.0,73,0.00,,---,0.00,VWS V14.01,2013-04-02 17:08:00,
2013-04-02 10:13:00,50.3,41.6,30.13,North,360,0.0,0.0,72,0.00,,---,0.00,VWS V14.01,2013-04-02 17:13:00,
2013-04-02 10:15:00,50.3,41.6,30.13,North,5,0.0,0.0,72,0.00,,---,0.00,VWS V14.01,2013-04-02 17:15:00,
2013-04-02 10:18:00,50.7,41.7,30.13,North,5,0.0,0.0,71,0.00,,---,0.00,VWS V14.01,2013-04-02 17:18:00,
2013-04-02 10:23:00,51.5,42.4,30.13,North,360,0.0,0.0,71,0.00,,---,0.00,VWS V14.01,2013-04-02 17:23:00,
2013-04-02 10:28:00,51.8,42.0,30.13,NE,53,2.0,5.0,69,0.00,,---,0.00,VWS V14.01,2013-04-02 17:28:00,
2013-04-02 10:30:00,51.9,41.7,30.13,NE,54,2.0,5.0,68,0.00,,---,0.00,VWS V14.01,2013-04-02 17:30:00,
2013-04-02 10:33:00,51.7,41.1,30.13,ENE,75,4.0,6.0,67,0.00,,---,0.00,VWS V14.01,2013-04-02 17:33:00,
2013-04-02 10:38:00,51.5,41.3,30.13,ENE,75,0.0,6.0,68,0.00,,---,0.00,VWS V14.01,2013-04-02 17:38:00,
2013-04-02 10:43:00,51.8,41.6,30.13,East,94,0.0,6.0,68,0.00,,---,0.00,VWS V14.01,2013-04-02 17:43:00,
2013-04-02 10:45:00,52.0,41.8,30.13,East,95,2.0,6.0,68,0.00,,---,0.00,VWS V14.01,2013-04-02 17:45:00,
2013-04-02 10:48:00,52.1,41.1,30.13,East,95,0.0,4.0,66,0.00,,---,0.00,VWS V14.01,2013-04-02 17:48:00,
2013-04-02 10:53:00,52.2,41.2,30.12,East,95,0.0,4.0,66,0.00,,---,0.00,VWS V14.01,2013-04-02 17:53:00,
2013-04-02 10:58:00,53.0,42.0,30.12,East,95,0.0,4.0,66,0.00,,---,0.00,VWS V14.01,2013-04-02 17:58:00,
2013-04-02 11:00:00,53.3,42.2,30.12,East,95,0.0,4.0,66,0.00,,---,0.00,VWS V14.01,2013-04-02 18:00:00,
2013-04-02 11:03:00,53.8,41.9,30.12,ESE,106,0.0,2.0,64,0.00,,---,0.00,VWS V14.01,2013-04-02 18:03:00,
2013-04-02 11:08:00,53.9,40.8,30.11,ESE,106,0.0,2.0,61,0.00,,---,0.00,VWS V14.01,2013-04-02 18:08:00,
2013-04-02 11:13:00,54.2,41.1,30.12,ESE,121,0.0,5.0,61,0.00,,---,0.00,VWS V14.01,2013-04-02 18:13:00,
2013-04-02 11:15:00,54.1,40.5,30.12,ESE,121,0.0,5.0,60,0.00,,---,0.00,VWS V14.01,2013-04-02 18:15:00,
2013-04-02 11:18:00,54.0,40.4,30.12,SSE,162,0.0,7.0,60,0.00,,---,0.00,VWS V14.01,2013-04-02 18:18:00,
2013-04-02 11:23:00,54.1,40.5,30.11,SSE,159,0.0,7.0,60,0.00,,---,0.00,VWS V14.01,2013-04-02 18:23:00,
2013-04-02 11:28:00,54.2,40.2,30.11,SE,134,0.0,7.0,59,0.00,,---,0.00,VWS V14.01,2013-04-02 18:28:00,
2013-04-02 11:30:00,54.2,40.2,30.11,SE,135,0.0,7.0,59,0.00,,---,0.00,VWS V14.01,2013-04-02 18:30:00,
2013-04-02 11:33:00,54.3,40.3,30.11,NNE,15,2.0,5.0,59,0.00,,---,0.00,VWS V14.01,2013-04-02 18:33:00,
2013-04-02 11:38:00,54.7,41.1,30.11,NNE,17,0.0,5.0,60,0.00,,---,0.00,VWS V14.01,2013-04-02 18:38:00,
2013-04-02 11:43:00,55.3,40.8,30.11,WSW,247,0.0,5.0,58,0.00,,---,0.00,VWS V14.01,2013-04-02 18:43:00,
2013-04-02 11:45:00,55.3,41.2,30.11,WSW,247,0.0,5.0,59,0.00,,---,0.00,VWS V14.01,2013-04-02 18:45:00,
2013-04-02 11:48:00,55.4,41.3,30.11,WSW,247,0.0,0.0,59,0.00,,---,0.00,VWS V14.01,2013-04-02 18:48:00,
2013-04-02 11:53:00,55.3,40.8,30.10,ESE,108,0.0,7.0,58,0.00,,---,0.00,VWS V14.01,2013-04-02 18:53:00,
2013-04-02 11:58:00,55.3,41.2,30.10,ESE,112,7.0,7.0,59,0.00,,---,0.00,VWS V14.01,2013-04-02 18:58:00,
2013-04-02 12:00:00,55.2,41.6,30.10,ESE,105,4.0,7.0,60,0.00,,---,0.00,VWS V14.01,2013-04-02 19:00:00,
2013-04-02 12:03:00,55.0,41.0,30.10,East,84,0.0,5.0,59,0.00,,---,0.00,VWS V14.01,2013-04-02 19:03:00,
2013-04-02 12:08:00,55.2,41.1,30.10,East,86,0.0,5.0,59,0.00,,---,0.00,VWS V14.01,2013-04-02 19:08:00,
2013-04-02 12:13:00,55.8,41.7,30.10,East,85,0.0,5.0,59,0.00,,---,0.00,VWS V14.01,2013-04-02 19:13:00,
2013-04-02 12:15:00,55.9,41.3,30.10,East,86,0.0,5.0,58,0.00,,---,0.00,VWS V14.01,2013-04-02 19:15:00,
2013-04-02 12:18:00,56.1,41.1,30.10,SSE,160,0.0,0.0,57,0.00,,---,0.00,VWS V14.01,2013-04-02 19:18:00,
2013-04-02 12:23:00,56.6,41.6,30.10,East,93,0.0,0.0,57,0.00,,---,0.00,VWS V14.01,2013-04-02 19:23:00,
2013-04-02 12:28:00,56.8,41.8,30.09,NNE,26,4.0,6.0,57,0.00,,---,0.00,VWS V14.01,2013-04-02 19:28:00,
2013-04-02 12:30:00,56.7,41.2,30.09,NNE,18,4.0,6.0,56,0.00,,---,0.00,VWS V14.01,2013-04-02 19:30:00,
2013-04-02 12:33:00,56.3,40.8,30.09,NNE,27,0.0,4.0,56,0.00,,---,0.00,VWS V14.01,2013-04-02 19:33:00,
2013-04-02 12:38:00,56.6,41.1,30.09,NW,313,0.0,4.0,56,0.00,,---,0.00,VWS V14.01,2013-04-02 19:38:00,
2013-04-02 12:43:00,56.9,41.4,30.09,NW,313,0.0,4.0,56,0.00,,---,0.00,VWS V14.01,2013-04-02 19:43:00,
2013-04-02 12:45:00,57.0,41.5,30.08,NNW,346,0.0,4.0,56,0.00,,---,0.00,VWS V14.01,2013-04-02 19:45:00,
2013-04-02 12:48:00,57.1,40.6,30.08,NE,35,0.0,0.0,54,0.00,,---,0.00,VWS V14.01,2013-04-02 19:48:00,
2013-04-02 12:53:00,57.3,41.3,30.08,NE,35,0.0,0.0,55,0.00,,---,0.00,VWS V14.01,2013-04-02 19:53:00,
2013-04-02 12:58:00,57.9,40.9,30.08,East,88,0.0,0.0,53,0.00,,---,0.00,VWS V14.01,2013-04-02 19:58:00,
2013-04-02 13:00:00,58.1,40.6,30.08,East,88,0.0,0.0,52,0.00,,---,0.00,VWS V14.01,2013-04-02 20:00:00,
2013-04-02 13:03:00,59.0,40.9,30.08,SE,129,0.0,0.0,51,0.00,,---,0.00,VWS V14.01,2013-04-02 20:03:00,
2013-04-02 13:08:00,58.8,39.2,30.08,SE,142,0.0,1.0,48,0.00,,---,0.00,VWS V14.01,2013-04-02 20:08:00,
2013-04-02 13:13:00,58.4,39.3,30.08,South,169,2.0,5.0,49,0.00,,---,0.00,VWS V14.01,2013-04-02 20:13:00,
2013-04-02 13:15:00,58.3,39.2,30.08,South,169,0.0,5.0,49,0.00,,---,0.00,VWS V14.01,2013-04-02 20:15:00,
2013-04-02 13:19:00,58.0,39.0,30.08,SSW,205,0.0,6.0,49,0.00,,---,0.00,VWS V14.01,2013-04-02 20:19:00,
2013-04-02 13:24:00,58.0,38.4,30.08,SW,227,0.0,6.0,48,0.00,,---,0.00,VWS V14.01,2013-04-02 20:24:00,
2013-04-02 13:29:00,58.1,39.6,30.08,SW,227,0.0,6.0,50,0.00,,---,0.00,VWS V14.01,2013-04-02 20:29:00,
2013-04-02 13:30:00,58.3,39.8,30.08,SW,227,3.0,6.0,50,0.00,,---,0.00,VWS V14.01,2013-04-02 20:30:00,
2013-04-02 13:34:00,58.5,39.4,30.08,SW,227,0.0,3.0,49,0.00,,---,0.00,VWS V14.01,2013-04-02 20:34:00,
2013-04-02 13:39:00,59.0,38.8,30.07,SW,215,0.0,3.0,47,0.00,,---,0.00,VWS V14.01,2013-04-02 20:39:00,
2013-04-02 13:44:00,59.3,39.1,30.07,SW,215,0.0,3.0,47,0.00,,---,0.00,VWS V14.01,2013-04-02 20:44:00,
2013-04-02 13:45:00,59.3,39.1,30.07,SW,215,0.0,3.0,47,0.00,,---,0.00,VWS V14.01,2013-04-02 20:45:00,
2013-04-02 13:49:00,59.6,39.4,30.07,WSW,255,6.0,6.0,47,0.00,,---,0.00,VWS V14.01,2013-04-02 20:49:00,
2013-04-02 13:54:00,59.7,38.9,30.07,WSW,257,0.0,6.0,46,0.00,,---,0.00,VWS V14.01,2013-04-02 20:54:00,
2013-04-02 13:59:00,59.6,38.2,30.07,West,267,0.0,6.0,45,0.00,,---,0.00,VWS V14.01,2013-04-02 20:59:00,
2013-04-02 14:00:00,59.7,37.8,30.07,West,267,0.0,6.0,44,0.00,,---,0.00,VWS V14.01,2013-04-02 21:00:00,
2013-04-02 14:04:00,59.7,38.3,30.07,West,279,0.0,5.0,45,0.00,,---,0.00,VWS V14.01,2013-04-02 21:04:00,
2013-04-02 14:09:00,60.1,38.1,30.07,WNW,287,6.0,6.0,44,0.00,,---,0.00,VWS V14.01,2013-04-02 21:09:00,
2013-04-02 14:14:00,60.4,38.4,30.07,WNW,287,0.0,6.0,44,0.00,,---,0.00,VWS V14.01,2013-04-02 21:14:00,
2013-04-02 14:15:00,60.5,39.1,30.07,NNW,333,0.0,6.0,45,0.00,,---,0.00,VWS V14.01,2013-04-02 21:15:00,
2013-04-02 14:19:00,60.7,38.7,30.07,WNW,299,0.0,5.0,44,0.00,,---,0.00,VWS V14.01,2013-04-02 21:19:00,
2013-04-02 14:24:00,60.5,38.5,30.06,SW,232,5.0,9.0,44,0.00,,---,0.00,VWS V14.01,2013-04-02 21:24:00,
2013-04-02 14:29:00,60.2,38.8,30.06,SW,230,0.0,9.0,45,0.00,,---,0.00,VWS V14.01,2013-04-02 21:29:00,
2013-04-02 14:30:00,60.3,38.3,30.06,SW,230,0.0,9.0,44,0.00,,---,0.00,VWS V14.01,2013-04-02 21:30:00,
2013-04-02 14:34:00,61.3,39.2,30.06,SSE,155,0.0,6.0,44,0.00,,---,0.00,VWS V14.01,2013-04-02 21:34:00,
2013-04-02 14:39:00,61.6,40.1,30.06,SE,138,0.0,6.0,45,0.00,,---,0.00,VWS V14.01,2013-04-02 21:39:00,
2013-04-02 14:44:00,62.2,39.5,30.06,SSW,198,0.0,6.0,43,0.00,,---,0.00,VWS V14.01,2013-04-02 21:44:00,
2013-04-02 14:45:00,62.1,40.5,30.06,SSW,198,0.0,6.0,45,0.00,,---,0.00,VWS V14.01,2013-04-02 21:45:00,
2013-04-02 14:49:00,62.2,39.5,30.06,SSW,210,0.0,0.0,43,0.00,,---,0.00,VWS V14.01,2013-04-02 21:49:00,
2013-04-02 14:54:00,61.8,40.3,30.05,WSW,241,4.0,10.0,45,0.00,,---,0.00,VWS V14.01,2013-04-02 21:54:00,
2013-04-02 14:59:00,61.5,38.8,30.05,WSW,245,5.0,10.0,43,0.00,,---,0.00,VWS V14.01,2013-04-02 21:59:00,
2013-04-02 15:00:00,61.4,38.7,30.05,WSW,254,0.0,10.0,43,0.00,,---,0.00,VWS V14.01,2013-04-02 22:00:00,
2013-04-02 15:04:00,61.5,38.8,30.05,WSW,257,0.0,6.0,43,0.00,,---,0.00,VWS V14.01,2013-04-02 22:04:00,
2013-04-02 15:09:00,61.8,39.1,30.05,SE,142,7.0,7.0,43,0.00,,---,0.00,VWS V14.01,2013-04-02 22:09:00,
2013-04-02 15:14:00,62.0,39.9,30.04,SE,131,7.0,9.0,44,0.00,,---,0.00,VWS V14.01,2013-04-02 22:14:00,
2013-04-02 15:15:00,62.0,38.7,30.04,SE,130,4.0,9.0,42,0.00,,---,0.00,VWS V14.01,2013-04-02 22:15:00,
2013-04-02 15:19:00,62.0,39.3,30.04,ESE,115,0.0,4.0,43,0.00,,---,0.00,VWS V14.01,2013-04-02 22:19:00,
2013-04-02 15:24:00,62.7,39.3,30.04,SE,128,0.0,4.0,42,0.00,,---,0.00,VWS V14.01,2013-04-02 22:24:00,
2013-04-02 15:29:00,63.1,39.0,30.04,SE,139,9.0,10.0,41,0.00,,---,0.00,VWS V14.01,2013-04-02 22:29:00,
2013-04-02 15:30:00,63.1,39.7,30.04,SE,146,11.0,11.0,42,0.00,,---,0.00,VWS V14.01,2013-04-02 22:30:00,
2013-04-02 15:34:00,62.6,39.2,30.04,ESE,107,0.0,11.0,42,0.00,,---,0.00,VWS V14.01,2013-04-02 22:34:00,
2013-04-02 15:39:00,62.5,39.1,30.03,ESE,105,0.0,11.0,42,0.00,,---,0.00,VWS V14.01,2013-04-02 22:39:00,
2013-04-02 15:44:00,63.2,39.8,30.03,NW,323,0.0,11.0,42,0.00,,---,0.00,VWS V14.01,2013-04-02 22:44:00,
2013-04-02 15:45:00,63.2,40.3,30.03,NW,322,0.0,11.0,43,0.00,,---,0.00,VWS V14.01,2013-04-02 22:45:00,
2013-04-02 15:49:00,64.1,40.6,30.03,SSE,154,0.0,10.0,42,0.00,,---,0.00,VWS V14.01,2013-04-02 22:49:00,
2013-04-02 15:54:00,64.8,39.9,30.03,SSW,196,0.0,10.0,40,0.00,,---,0.00,VWS V14.01,2013-04-02 22:54:00,
2013-04-02 15:59:00,64.9,40.0,30.03,SE,138,0.0,10.0,40,0.00,,---,0.00,VWS V14.01,2013-04-02 22:59:00,
2013-04-02 16:00:00,64.9,40.0,30.03,SE,137,0.0,10.0,40,0.00,,---,0.00,VWS V14.01,2013-04-02 23:00:00,
2013-04-02 16:04:00,65.0,40.1,30.03,SE,138,0.0,1.0,40,0.00,,---,0.00,VWS V14.01,2013-04-02 23:04:00,
2013-04-02 16:09:00,64.9,40.7,30.03,SSW,210,0.0,7.0,41,0.00,,---,0.00,VWS V14.01,2013-04-02 23:09:00,
2013-04-02 16:14:00,64.4,40.8,30.02,SW,215,1.0,7.0,42,0.00,,---,0.00,VWS V14.01,2013-04-02 23:14:00,
2013-04-02 16:15:00,64.4,40.2,30.02,SW,217,7.0,8.0,41,0.00,,---,0.00,VWS V14.01,2013-04-02 23:15:00,
2013-04-02 16:19:00,63.9,39.1,30.03,WSW,254,3.0,8.0,40,0.00,,---,0.00,VWS V14.01,2013-04-02 23:19:00,
2013-04-02 16:24:00,63.7,39.0,30.02,West,268,0.0,8.0,40,0.00,,---,0.00,VWS V14.01,2013-04-02 23:24:00,
2013-04-02 16:29:00,63.8,39.7,30.02,WSW,246,4.0,11.0,41,0.00,,---,0.00,VWS V14.01,2013-04-02 23:29:00,
2013-04-02 16:30:00,63.7,39.6,30.02,SW,236,4.0,11.0,41,0.00,,---,0.00,VWS V14.01,2013-04-02 23:30:00,
2013-04-02 16:34:00,63.8,39.7,30.02,WSW,250,4.0,6.0,41,0.00,,---,0.00,VWS V14.01,2013-04-02 23:34:00,
2013-04-02 16:39:00,63.6,39.5,30.02,WSW,244,8.0,13.0,41,0.00,,---,0.00,VWS V14.01,2013-04-02 23:39:00,
2013-04-02 16:44:00,63.4,41.1,30.02,WSW,249,9.0,13.0,44,0.00,,---,0.00,VWS V14.01,2013-04-02 23:44:00,
2013-04-02 16:45:00,63.4,41.1,30.02,West,259,10.0,13.0,44,0.00,,---,0.00,VWS V14.01,2013-04-02 23:45:00,
2013-04-02 16:49:00,63.3,41.0,30.02,West,279,6.0,12.0,44,0.00,,---,0.00,VWS V14.01,2013-04-02 23:49:00,
2013-04-02 16:54:00,63.3,40.5,30.02,WSW,237,6.0,12.0,43,0.00,,---,0.00,VWS V14.01,2013-04-02 23:54:00,
2013-04-02 16:59:00,63.5,41.2,30.02,WSW,238,6.0,14.0,44,0.00,,---,0.00,VWS V14.01,2013-04-02 23:59:00,
2013-04-02 17:00:00,63.5,42.4,30.02,SW,225,11.0,14.0,46,0.00,,---,0.00,VWS V14.01,2013-04-03 00:00:00,
2013-04-02 17:05:00,63.7,41.4,30.02,SW,229,14.0,15.0,44,0.00,,---,0.00,VWS V14.01,2013-04-03 00:05:00,
2013-04-02 17:09:00,63.4,41.7,30.02,SW,234,9.0,16.0,45,0.00,,---,0.00,VWS V14.01,2013-04-03 00:09:00,
2013-04-02 17:15:00,63.0,43.0,30.02,SSW,213,11.0,16.0,48,0.00,,---,0.00,VWS V14.01,2013-04-03 00:15:00,
2013-04-02 17:20:00,62.6,42.7,30.02,WSW,242,18.0,20.0,48,0.00,,---,0.00,VWS V14.01,2013-04-03 00:20:00,
2013-04-02 17:25:00,62.4,41.4,30.02,WSW,245,13.0,21.0,46,0.00,,---,0.00,VWS V14.01,2013-04-03 00:25:00,
2013-04-02 17:30:00,61.7,41.8,30.02,WSW,242,12.0,21.0,48,0.00,,---,0.00,VWS V14.01,2013-04-03 00:30:00,
2013-04-02 17:35:00,61.6,41.7,30.02,WSW,252,12.0,15.0,48,0.00,,---,0.00,VWS V14.01,2013-04-03 00:35:00,
2013-04-02 17:40:00,61.9,42.5,30.02,SW,226,15.0,15.0,49,0.00,,---,0.00,VWS V14.01,2013-04-03 00:40:00,
2013-04-02 17:45:00,62.1,42.2,30.02,SW,227,12.0,17.0,48,0.00,,---,0.00,VWS V14.01,2013-04-03 00:45:00,
2013-04-02 17:50:00,61.8,43.0,30.02,SW,221,13.0,16.0,50,0.00,,---,0.00,VWS V14.01,2013-04-03 00:50:00,
2013-04-02 17:55:00,61.7,42.4,30.02,WSW,256,7.0,18.0,49,0.00,,---,0.00,VWS V14.01,2013-04-03 00:55:00,
2013-04-02 18:00:00,61.4,43.6,30.02,West,264,15.0,18.0,52,0.00,,---,0.00,VWS V14.01,2013-04-03 01:00:00,
2013-04-02 18:05:00,60.7,43.0,30.03,West,271,13.0,15.0,52,0.00,,---,0.00,VWS V14.01,2013-04-03 01:05:00,
2013-04-02 18:10:00,60.2,43.0,30.03,West,273,9.0,15.0,53,0.00,,---,0.00,VWS V14.01,2013-04-03 01:10:00,
2013-04-02 18:15:00,59.8,42.7,30.03,West,269,15.0,16.0,53,0.00,,---,0.00,VWS V14.01,2013-04-03 01:15:00,
2013-04-02 18:20:00,59.5,42.9,30.03,West,277,15.0,17.0,54,0.00,,---,0.00,VWS V14.01,2013-04-03 01:20:00,
2013-04-02 18:25:00,59.2,42.6,30.03,West,262,8.0,18.0,54,0.00,,---,0.00,VWS V14.01,2013-04-03 01:25:00,
2013-04-02 18:30:00,59.0,42.4,30.03,West,268,8.0,8.0,54,0.00,,---,0.00,VWS V14.01,2013-04-03 01:30:00,
2013-04-02 18:35:00,59.0,42.9,30.02,West,278,6.0,14.0,55,0.00,,---,0.00,VWS V14.01,2013-04-03 01:35:00,
2013-04-02 18:40:00,58.6,43.0,30.03,West,278,3.0,14.0,56,0.00,,---,0.00,VWS V14.01,2013-04-03 01:40:00,
2013-04-02 18:45:00,58.2,42.1,30.03,West,267,7.0,8.0,55,0.00,,---,0.00,VWS V14.01,2013-04-03 01:45:00,
2013-04-02 18:50:00,58.0,42.9,30.03,WSW,255,0.0,12.0,57,0.00,,---,0.00,VWS V14.01,2013-04-03 01:50:00,
2013-04-02 18:55:00,57.9,42.3,30.03,WSW,252,2.0,12.0,56,0.00,,---,0.00,VWS V14.01,2013-04-03 01:55:00,
2013-04-02 19:00:00,57.7,42.6,30.03,WSW,256,6.0,8.0,57,0.00,,---,0.00,VWS V14.01,2013-04-03 02:00:00,
2013-04-02 19:05:00,57.4,42.3,30.03,WSW,256,5.0,8.0,57,0.00,,---,0.00,VWS V14.01,2013-04-03 02:05:00,
2013-04-02 19:10:00,56.8,42.2,30.03,West,279,7.0,8.0,58,0.00,,---,0.00,VWS V14.01,2013-04-03 02:10:00,
2013-04-02 19:15:00,56.4,41.8,30.03,West,280,5.0,5.0,58,0.00,,---,0.00,VWS V14.01,2013-04-03 02:15:00,
2013-04-02 19:20:00,55.8,41.7,30.03,West,272,6.0,9.0,59,0.00,,---,0.00,VWS V14.01,2013-04-03 02:20:00,
2013-04-02 19:25:00,55.5,41.4,30.03,West,268,7.0,12.0,59,0.00,,---,0.00,VWS V14.01,2013-04-03 02:25:00,
2013-04-02 19:30:00,55.2,41.6,30.03,WNW,283,5.0,9.0,60,0.00,,---,0.00,VWS V14.01,2013-04-03 02:30:00,
2013-04-02 19:35:00,54.6,41.9,30.03,West,271,2.0,9.0,62,0.00,,---,0.00,VWS V14.01,2013-04-03 02:35:00,
2013-04-02 19:40:00,54.2,41.9,30.04,West,268,5.0,11.0,63,0.00,,---,0.00,VWS V14.01,2013-04-03 02:40:00,
2013-04-02 19:45:00,54.0,42.1,30.04,West,261,2.0,6.0,64,0.00,,---,0.00,VWS V14.01,2013-04-03 02:45:00,
2013-04-02 19:50:00,53.6,41.7,30.04,West,261,0.0,6.0,64,0.00,,---,0.00,VWS V14.01,2013-04-03 02:50:00,
2013-04-02 19:55:00,53.3,41.8,30.05,West,265,5.0,10.0,65,0.00,,---,0.00,VWS V14.01,2013-04-03 02:55:00,
2013-04-02 20:00:00,53.3,41.8,30.05,West,277,5.0,5.0,65,0.00,,---,0.00,VWS V14.01,2013-04-03 03:00:00,
2013-04-02 20:05:00,53.1,41.7,30.05,WSW,251,0.0,5.0,65,0.00,,---,0.00,VWS V14.01,2013-04-03 03:05:00,
2013-04-02 20:10:00,52.7,41.7,30.05,WSW,250,3.0,7.0,66,0.00,,---,0.00,VWS V14.01,2013-04-03 03:10:00,
2013-04-02 20:15:00,52.7,41.7,30.05,WSW,257,1.0,2.0,66,0.00,,---,0.00,VWS V14.01,2013-04-03 03:15:00,
2013-04-02 20:20:00,52.7,41.7,30.06,WSW,257,0.0,3.0,66,0.00,,---,0.00,VWS V14.01,2013-04-03 03:20:00,
2013-04-02 20:25:00,52.1,41.1,30.06,WSW,252,0.0,3.0,66,0.00,,---,0.00,VWS V14.01,2013-04-03 03:25:00,
2013-04-02 20:30:00,51.4,41.2,30.06,SW,232,0.0,0.0,68,0.00,,---,0.00,VWS V14.01,2013-04-03 03:30:00,
2013-04-02 20:35:00,51.6,41.4,30.06,SW,232,0.0,0.0,68,0.00,,---,0.00,VWS V14.01,2013-04-03 03:35:00,
2013-04-02 20:40:00,51.7,41.1,30.06,SW,232,0.0,0.0,67,0.00,,---,0.00,VWS V14.01,2013-04-03 03:40:00,
2013-04-02 20:45:00,51.8,41.2,30.07,SW,232,0.0,0.0,67,0.00,,---,0.00,VWS V14.01,2013-04-03 03:45:00,
2013-04-02 20:50:00,51.8,41.2,30.07,SW,232,0.0,0.0,67,0.00,,---,0.00,VWS V14.01,2013-04-03 03:50:00,
2013-04-02 20:55:00,51.6,41.4,30.07,SW,232,0.0,0.0,68,0.00,,---,0.00,VWS V14.01,2013-04-03 03:55:00,
2013-04-02 21:00:00,51.4,41.2,30.07,SW,232,0.0,0.0,68,0.00,,---,0.00,VWS V14.01,2013-04-03 04:00:00,
2013-04-02 21:05:00,51.2,41.0,30.07,SW,232,0.0,0.0,68,0.00,,---,0.00,VWS V14.01,2013-04-03 04:05:00,
2013-04-02 21:10:00,50.7,40.9,30.07,SW,232,0.0,0.0,69,0.00,,---,0.00,VWS V14.01,2013-04-03 04:10:00,
2013-04-02 21:15:00,50.7,40.9,30.07,WNW,289,3.0,4.0,69,0.00,,---,0.00,VWS V14.01,2013-04-03 04:15:00,
2013-04-02 21:20:00,50.9,41.1,30.07,WNW,298,5.0,7.0,69,0.00,,---,0.00,VWS V14.01,2013-04-03 04:20:00,
2013-04-02 21:25:00,50.8,41.0,30.07,WNW,298,0.0,7.0,69,0.00,,---,0.00,VWS V14.01,2013-04-03 04:25:00,
2013-04-02 21:30:00,50.3,40.5,30.08,WNW,298,0.0,0.0,69,0.00,,---,0.00,VWS V14.01,2013-04-03 04:30:00,
2013-04-02 21:35:00,49.9,40.5,30.08,NW,304,0.0,0.0,70,0.00,,---,0.00,VWS V14.01,2013-04-03 04:35:00,
2013-04-02 21:40:00,49.7,40.3,30.08,NW,304,0.0,0.0,70,0.00,,---,0.00,VWS V14.01,2013-04-03 04:40:00,
2013-04-02 21:45:00,49.4,40.0,30.08,WNW,303,0.0,0.0,70,0.00,,---,0.00,VWS V14.01,2013-04-03 04:45:00,
2013-04-02 21:50:00,48.9,39.9,30.08,NW,304,0.0,0.0,71,0.00,,---,0.00,VWS V14.01,2013-04-03 04:50:00,
2013-04-02 21:55:00,48.5,39.9,30.08,WNW,303,0.0,0.0,72,0.00,,---,0.00,VWS V14.01,2013-04-03 04:55:00,
2013-04-02 22:00:00,48.2,40.0,30.08,NW,304,0.0,0.0,73,0.00,,---,0.00,VWS V14.01,2013-04-03 05:00:00,
2013-04-02 22:05:00,48.1,40.2,30.08,NW,304,0.0,0.0,74,0.00,,---,0.00,VWS V14.01,2013-04-03 05:05:00,
2013-04-02 22:10:00,48.1,40.2,30.09,WNW,303,0.0,0.0,74,0.00,,---,0.00,VWS V14.01,2013-04-03 05:10:00,
2013-04-02 22:15:00,47.9,40.0,30.09,NW,304,0.0,0.0,74,0.00,,---,0.00,VWS V14.01,2013-04-03 05:15:00,
2013-04-02 22:20:00,47.8,39.9,30.08,NW,304,0.0,0.0,74,0.00,,---,0.00,VWS V14.01,2013-04-03 05:20:00,
2013-04-02 22:25:00,47.8,39.9,30.09,NW,304,0.0,0.0,74,0.00,,---,0.00,VWS V14.01,2013-04-03 05:25:00,
2013-04-02 22:30:00,47.9,40.0,30.08,NW,304,0.0,0.0,74,0.00,,---,0.00,VWS V14.01,2013-04-03 05:30:00,
2013-04-02 22:35:00,47.3,39.8,30.08,NW,304,0.0,0.0,75,0.00,,---,0.00,VWS V14.01,2013-04-03 05:35:00,
2013-04-02 22:40:00,46.8,39.0,30.08,North,355,0.0,0.0,74,0.00,,---,0.00,VWS V14.01,2013-04-03 05:40:00,
2013-04-02 22:45:00,46.1,39.3,30.08,NNE,22,0.0,0.0,77,0.00,,---,0.00,VWS V14.01,2013-04-03 05:45:00,
2013-04-02 22:50:00,45.4,38.3,30.08,NNE,22,0.0,0.0,76,0.00,,---,0.00,VWS V14.01,2013-04-03 05:50:00,
2013-04-02 22:55:00,45.0,38.9,30.08,NNE,22,0.0,0.0,79,0.00,,---,0.00,VWS V14.01,2013-04-03 05:55:00,
2013-04-02 23:00:00,44.0,38.2,30.08,NNE,32,0.0,0.0,80,0.00,,---,0.00,VWS V14.01,2013-04-03 06:00:00,
2013-04-02 23:05:00,43.2,37.8,30.08,NNE,31,5.0,5.0,81,0.00,,---,0.00,VWS V14.01,2013-04-03 06:05:00,
2013-04-02 23:10:00,44.3,39.2,30.09,NNE,25,4.0,6.0,82,0.00,,---,0.00,VWS V14.01,2013-04-03 06:10:00,
2013-04-02 23:15:00,45.1,39.3,30.09,NNE,14,5.0,5.0,80,0.00,,---,0.00,VWS V14.01,2013-04-03 06:15:00,
2013-04-02 23:20:00,45.1,38.7,30.09,NNE,15,0.0,5.0,78,0.00,,---,0.00,VWS V14.01,2013-04-03 06:20:00,
2013-04-02 23:25:00,44.6,38.2,30.09,NNE,15,0.0,5.0,78,0.00,,---,0.00,VWS V14.01,2013-04-03 06:25:00,
2013-04-02 23:30:00,44.3,38.8,30.09,NNE,15,0.0,0.0,81,0.00,,---,0.00,VWS V14.01,2013-04-03 06:30:00,
2013-04-02 23:35:00,44.6,38.8,30.09,NNE,15,0.0,0.0,80,0.00,,---,0.00,VWS V14.01,2013-04-03 06:35:00,
2013-04-02 23:40:00,44.0,37.6,30.09,NE,40,4.0,5.0,78,0.00,,---,0.00,VWS V14.01,2013-04-03 06:40:00,
2013-04-02 23:45:00,43.0,37.6,30.09,NE,40,3.0,3.0,81,0.00,,---,0.00,VWS V14.01,2013-04-03 06:45:00,
2013-04-02 23:50:00,42.0,36.3,30.09,NE,40,0.0,4.0,80,0.00,,---,0.00,VWS V14.01,2013-04-03 06:50:00,
2013-04-02 23:55:00,41.4,36.9,30.09,NE,40,0.0,4.0,84,0.00,,---,0.00,VWS V14.01,2013-04-03 06:55:00,